Time;durP1;ratioP1;P1;durP2;ratioP2;P2;SDS_P1;SDS_P2;PMS_P1;PMS_P2;Temp;Humidity;BMP_temperature;BMP_pressure;BME280_temperature;BME280_humidity;BME280_pressure;Samples;Min_cycle;Max_cycle;Signal;HPM_P1;HPM_P2
2023/06/07 00:02:00;;;;;;;20.33;9.63;;;;;;;13.43;96.39;101870.41;5092652;28;20028;-45
2023/06/07 00:04:25;;;;;;;16.15;9.77;;;;;;;13.40;96.71;101865.13;5092895;28;20023;-48
2023/06/07 00:07:00;;;;;;;23.13;9.55;;;;;;;13.41;96.87;101869.47;5093172;28;20024;-49
2023/06/07 00:09:26;;;;;;;13.68;8.77;;;;;;;13.38;97.18;101868.50;5091988;28;20024;-46
2023/06/07 00:11:51;;;;;;;16.35;8.65;;;;;;;13.36;96.61;101865.78;5093241;28;20099;-44
2023/06/07 00:14:17;;;;;;;15.43;8.32;;;;;;;13.37;96.44;101865.00;5092167;28;20115;-44
2023/06/07 00:16:44;;;;;;;14.30;8.57;;;;;;;13.35;96.54;101871.84;5092887;28;20026;-44
2023/06/07 00:19:11;;;;;;;15.73;9.05;;;;;;;13.33;96.88;101868.28;5092793;28;20081;-44
2023/06/07 00:21:38;;;;;;;17.25;9.13;;;;;;;13.31;96.94;101863.06;5091807;28;20829;-48
2023/06/07 00:24:03;;;;;;;14.80;8.60;;;;;;;13.32;96.71;101875.19;5092937;28;20020;-46
2023/06/07 00:26:28;;;;;;;14.50;8.82;;;;;;;13.35;96.18;101866.66;5092494;28;20115;-46
2023/06/07 00:28:54;;;;;;;15.10;8.93;;;;;;;13.32;96.50;101866.53;5092066;28;20456;-44
2023/06/07 00:31:19;;;;;;;15.80;9.50;;;;;;;13.34;96.43;101872.66;5092662;28;20035;-44
2023/06/07 00:33:45;;;;;;;16.70;8.55;;;;;;;13.34;96.34;101870.06;5092980;28;20371;-47
2023/06/07 00:36:10;;;;;;;16.13;8.80;;;;;;;13.28;96.76;101860.34;5091940;28;20080;-46
2023/06/07 00:38:35;;;;;;;15.20;9.20;;;;;;;13.28;96.47;101859.50;5092451;28;20392;-47
2023/06/07 00:41:01;;;;;;;15.00;9.52;;;;;;;13.25;96.81;101860.25;5092884;28;20054;-44
2023/06/07 00:43:26;;;;;;;14.88;9.07;;;;;;;13.23;96.97;101863.63;5091836;28;20406;-44
2023/06/07 00:45:51;;;;;;;15.18;8.75;;;;;;;13.22;96.92;101864.44;5092736;28;20464;-45
2023/06/07 00:48:17;;;;;;;14.48;9.10;;;;;;;13.20;97.44;101866.13;5092533;28;20012;-45
2023/06/07 00:50:43;;;;;;;16.23;9.48;;;;;;;13.17;97.25;101864.31;5092020;28;20028;-44
2023/06/07 00:53:09;;;;;;;15.00;9.30;;;;;;;13.11;97.43;101857.19;5092620;28;20020;-49
2023/06/07 00:55:34;;;;;;;13.60;8.93;;;;;;;13.09;97.48;101863.13;5092630;28;20607;-46
2023/06/07 00:58:00;;;;;;;15.00;9.20;;;;;;;13.08;97.01;101862.25;5092122;28;20414;-45
2023/06/07 01:00:26;;;;;;;18.88;9.40;;;;;;;13.05;97.17;101862.13;5092086;28;20044;-45
2023/06/07 01:02:53;;;;;;;17.33;9.50;;;;;;;13.01;97.77;101865.44;5092705;28;20028;-44
2023/06/07 01:05:20;;;;;;;14.97;9.07;;;;;;;12.98;98.11;101870.53;5091572;28;20020;-49
2023/06/07 01:07:46;;;;;;;16.60;9.82;;;;;;;12.96;98.45;101864.41;5092447;28;20031;-44
2023/06/07 01:10:12;;;;;;;14.45;9.55;;;;;;;12.92;98.25;101871.16;5092728;28;20028;-44
2023/06/07 01:12:39;;;;;;;14.00;9.05;;;;;;;12.89;98.15;101865.88;5091636;28;20024;-45
2023/06/07 01:15:05;;;;;;;;;;;;;;;13.02;95.69;101872.38;5092990;28;20078;-44
2023/06/07 01:17:32;;;;;;;14.27;9.15;;;;;;;12.91;97.43;101860.75;5092175;28;19912;-48
2023/06/07 01:20:00;;;;;;;16.20;8.60;;;;;;;12.86;98.11;101863.19;5091735;28;20105;-46
2023/06/07 01:22:27;;;;;;;15.98;8.68;;;;;;;12.81;98.46;101860.44;5092059;28;20541;-45
2023/06/07 01:24:55;;;;;;;17.80;9.80;;;;;;;12.78;98.64;101857.75;5091839;28;20077;-45
2023/06/07 01:27:21;;;;;;;15.82;9.98;;;;;;;12.74;98.74;101866.19;5092250;28;20032;-46
2023/06/07 01:29:48;;;;;;;14.80;9.38;;;;;;;12.68;98.93;101856.50;5092540;28;20016;-49
2023/06/07 01:32:15;;;;;;;16.60;9.48;;;;;;;12.67;99.16;101859.03;5093366;28;20028;-45
2023/06/07 01:34:41;;;;;;;12.95;9.02;;;;;;;12.63;99.51;101852.00;5095621;28;20062;-43
2023/06/07 01:37:07;;;;;;;14.93;9.07;;;;;;;12.60;99.68;101857.03;5095881;28;20024;-44
2023/06/07 01:39:33;;;;;;;14.85;9.18;;;;;;;12.58;99.74;101848.38;5094791;28;20028;-46
2023/06/07 01:41:59;;;;;;;15.68;9.65;;;;;;;12.56;99.74;101847.41;5095989;28;20077;-48
2023/06/07 01:44:25;;;;;;;18.70;10.02;;;;;;;12.52;99.92;101849.91;5095872;28;20020;-45
2023/06/07 01:46:51;;;;;;;14.57;9.63;;;;;;;12.51;100.00;101849.81;5095118;28;20032;-44
2023/06/07 01:49:22;;;;;;;14.10;9.70;;;;;;;12.47;100.00;101856.59;5095154;28;20016;-48
2023/06/07 01:51:47;;;;;;;16.13;9.82;;;;;;;12.46;100.00;101852.25;5095745;28;20035;-48
2023/06/07 01:54:14;;;;;;;15.02;9.15;;;;;;;12.42;100.00;101855.53;5094807;28;20020;-46
2023/06/07 01:57:09;;;;;;;16.10;10.40;;;;;;;12.43;100.00;101849.53;5095306;28;20102;-48
2023/06/07 01:59:46;;;;;;;14.93;10.02;;;;;;;12.35;100.00;101850.94;5095267;28;20031;-46
2023/06/07 02:02:40;;;;;;;17.35;10.35;;;;;;;12.33;100.00;101845.72;5095200;28;20521;-45
2023/06/07 02:05:14;;;;;;;16.55;9.57;;;;;;;12.28;100.00;101843.78;5084386;28;20072;-45
2023/06/07 02:07:49;;;;;;;18.85;10.95;;;;;;;12.25;100.00;101838.50;5094212;28;20372;-44
2023/06/07 02:10:17;;;;;;;18.10;10.43;;;;;;;12.21;100.00;101844.38;5095193;28;20022;-44
2023/06/07 02:12:45;;;;;;;18.10;10.63;;;;;;;12.16;100.00;101845.06;5095431;28;20016;-47
2023/06/07 02:15:10;;;;;;;17.92;11.07;;;;;;;12.16;100.00;101839.00;5094664;28;20025;-48
2023/06/07 02:18:01;;;;;;;16.60;10.23;;;;;;;12.13;100.00;101844.94;5094934;28;20039;-44
2023/06/07 02:20:31;;;;;;;19.92;11.10;;;;;;;12.06;100.00;101848.13;5094611;28;20051;-48
2023/06/07 02:22:57;;;;;;;17.83;10.50;;;;;;;12.03;100.00;101840.22;5094109;28;20065;-45
2023/06/07 02:25:26;;;;;;;18.42;10.45;;;;;;;12.00;100.00;101847.88;5094571;28;20428;-44
2023/06/07 02:27:52;;;;;;;17.58;11.02;;;;;;;11.99;100.00;101840.94;5094820;28;20496;-46
2023/06/07 02:30:18;;;;;;;16.58;10.82;;;;;;;11.97;100.00;101848.63;5094125;28;20023;-48
2023/06/07 02:32:49;;;;;;;16.58;10.80;;;;;;;11.94;100.00;101842.41;5094919;28;20024;-44
2023/06/07 02:35:17;;;;;;;16.33;10.82;;;;;;;11.92;100.00;101844.94;5094007;28;20732;-44
2023/06/07 02:37:42;;;;;;;15.80;10.55;;;;;;;11.91;100.00;101844.91;5094683;28;20353;-48
2023/06/07 02:40:11;;;;;;;23.60;12.18;;;;;;;11.90;100.00;101837.94;5094718;28;20533;-45
2023/06/07 02:42:37;;;;;;;17.98;11.77;;;;;;;11.88;100.00;101843.06;5093492;28;20024;-44
2023/06/07 02:45:03;;;;;;;17.95;11.85;;;;;;;11.86;100.00;101845.59;5094603;28;20031;-46
2023/06/07 02:47:30;;;;;;;18.15;11.43;;;;;;;11.85;100.00;101849.00;5094222;28;20526;-45
2023/06/07 02:49:55;;;;;;;19.38;11.57;;;;;;;11.83;100.00;101847.16;5093631;28;20048;-46
2023/06/07 02:52:21;;;;;;;19.92;11.93;;;;;;;11.81;100.00;101841.94;5094346;28;20035;-44
2023/06/07 02:54:46;;;;;;;19.90;11.60;;;;;;;11.80;100.00;101836.69;5094594;28;20082;-44
2023/06/07 02:57:12;;;;;;;17.25;11.00;;;;;;;11.79;100.00;101843.56;5093673;28;20028;-44
2023/06/07 02:59:39;;;;;;;18.40;11.20;;;;;;;11.79;100.00;101842.69;5093716;28;20483;-45
2023/06/07 03:02:05;;;;;;;22.90;11.48;;;;;;;11.78;100.00;101852.13;5094260;28;20028;-48
2023/06/07 03:04:31;;;;;;;16.60;10.90;;;;;;;11.76;100.00;101842.56;5093163;28;20099;-48
2023/06/07 03:06:56;;;;;;;20.58;11.27;;;;;;;11.77;100.00;101849.50;5094319;28;20104;-44
2023/06/07 03:09:22;;;;;;;19.13;11.43;;;;;;;11.73;100.00;101840.72;5094009;28;20024;-44
2023/06/07 03:11:48;;;;;;;18.63;11.70;;;;;;;11.71;100.00;101839.81;5093350;28;20020;-45
2023/06/07 03:14:14;;;;;;;17.10;11.57;;;;;;;11.72;100.00;101849.28;5093973;28;20024;-45
2023/06/07 03:16:40;;;;;;;18.67;10.65;;;;;;;11.68;100.00;101844.81;5093730;28;20020;-45
2023/06/07 03:19:05;;;;;;;17.70;11.30;;;;;;;11.66;100.00;101841.31;5093090;28;20032;-44
2023/06/07 03:21:30;;;;;;;15.52;10.40;;;;;;;11.65;100.00;101849.88;5093265;28;20067;-47
2023/06/07 03:23:55;;;;;;;15.88;10.68;;;;;;;11.64;100.00;101846.41;5093873;28;20375;-46
2023/06/07 03:26:21;;;;;;;18.42;11.68;;;;;;;11.64;100.00;101848.09;5092625;28;20024;-47
2023/06/07 03:28:48;;;;;;;19.08;10.77;;;;;;;11.61;100.00;101850.56;5093721;28;20032;-45
2023/06/07 03:31:13;;;;;;;18.77;11.05;;;;;;;11.60;100.00;101851.38;5093062;28;20039;-46
2023/06/07 03:33:40;;;;;;;21.60;10.77;;;;;;;11.58;100.00;101859.06;5093258;28;20426;-48
2023/06/07 03:36:07;;;;;;;16.83;10.18;;;;;;;11.57;100.00;101859.88;5093838;28;20081;-45
2023/06/07 03:38:32;;;;;;;16.83;10.70;;;;;;;11.55;100.00;101851.19;5092711;28;20019;-49
2023/06/07 03:40:57;;;;;;;21.50;11.25;;;;;;;11.53;100.00;101858.88;5093569;28;20373;-48
2023/06/07 03:43:22;;;;;;;18.67;11.00;;;;;;;11.52;100.00;101859.69;5093195;28;20024;-48
2023/06/07 03:45:48;;;;;;;15.60;10.73;;;;;;;11.51;100.00;101857.91;5092677;28;20066;-49
2023/06/07 03:48:13;;;;;;;17.13;10.57;;;;;;;11.51;100.00;101857.03;5093239;28;20038;-50
2023/06/07 03:50:38;;;;;;;17.15;11.07;;;;;;;11.50;100.00;101861.34;5093238;28;20020;-49
2023/06/07 03:53:03;;;;;;;18.75;11.13;;;;;;;11.51;100.00;101863.06;5092721;28;20352;-50
2023/06/07 03:55:29;;;;;;;15.48;10.38;;;;;;;11.49;100.00;101859.56;5092632;28;20028;-49
2023/06/07 03:57:54;;;;;;;19.13;10.80;;;;;;;11.48;100.00;101857.78;5093446;28;20024;-49
2023/06/07 04:00:20;;;;;;;17.38;10.77;;;;;;;11.49;100.00;101854.41;5092046;28;20352;-49
2023/06/07 04:02:45;;;;;;;18.88;11.80;;;;;;;11.49;100.00;101858.66;5093163;28;20082;-49
2023/06/07 04:05:11;;;;;;;19.58;11.15;;;;;;;11.47;100.00;101850.00;5093389;28;20013;-50
2023/06/07 04:07:36;;;;;;;17.42;10.63;;;;;;;11.46;100.00;101849.09;5092243;28;20095;-49
2023/06/07 04:10:01;;;;;;;18.42;11.10;;;;;;;11.46;100.00;101861.13;5093036;28;20113;-44
2023/06/07 04:12:26;;;;;;;16.38;10.20;;;;;;;11.47;100.00;101850.84;5092744;28;20133;-46
2023/06/07 04:14:52;;;;;;;17.35;10.18;;;;;;;11.50;100.00;101857.84;5092323;28;20383;-47
2023/06/07 04:17:17;;;;;;;16.98;10.10;;;;;;;11.50;100.00;101856.16;5092623;28;20020;-49
2023/06/07 04:19:42;;;;;;;18.58;10.57;;;;;;;11.51;100.00;101855.34;5092795;28;20111;-49
2023/06/07 04:22:08;;;;;;;19.08;10.70;;;;;;;11.51;100.00;101857.91;5092435;28;20020;-49
2023/06/07 04:24:33;;;;;;;18.25;10.98;;;;;;;11.55;100.00;101851.19;5092783;28;20145;-48
2023/06/07 04:26:58;;;;;;;18.95;10.43;;;;;;;11.57;100.00;101856.41;5092980;28;20020;-49
2023/06/07 04:29:27;;;;;;;23.25;10.95;;;;;;;11.60;100.00;101860.00;5091822;28;20482;-48
2023/06/07 04:31:56;;;;;;;18.25;10.80;;;;;;;11.62;100.00;101854.91;5092763;28;20023;-48
2023/06/07 04:34:23;;;;;;;17.13;10.23;;;;;;;11.67;100.00;101855.97;5092691;28;20042;-48
2023/06/07 04:36:49;;;;;;;18.88;11.40;;;;;;;11.72;100.00;101845.84;5092197;28;20020;-49
2023/06/07 04:39:15;;;;;;;17.25;10.98;;;;;;;11.74;100.00;101852.84;5092739;28;20160;-50
2023/06/07 04:41:40;;;;;;;19.70;10.00;;;;;;;11.74;100.00;101855.41;5092074;28;20535;-47
2023/06/07 04:44:06;;;;;;;18.98;10.25;;;;;;;11.75;100.00;101870.09;5092731;28;20093;-48
2023/06/07 04:46:32;;;;;;;18.85;10.18;;;;;;;11.75;100.00;101879.53;5092343;28;20024;-49
2023/06/07 04:48:58;;;;;;;21.40;10.43;;;;;;;11.77;100.00;101880.47;5092140;28;20016;-49
2023/06/07 04:51:25;;;;;;;19.98;10.07;;;;;;;11.77;100.00;101873.59;5092368;28;20468;-44
2023/06/07 04:53:58;;;;;;;20.10;10.25;;;;;;;11.75;100.00;101872.69;5092764;28;20039;-46
2023/06/07 04:56:25;;;;;;;19.08;10.50;;;;;;;11.72;100.00;101872.53;5091644;28;20028;-48
2023/06/07 04:58:52;;;;;;;23.92;10.43;;;;;;;11.71;100.00;101870.78;5092798;28;20028;-50
2023/06/07 05:01:17;;;;;;;19.00;11.07;;;;;;;11.69;100.00;101864.66;5092407;28;20024;-47
2023/06/07 05:03:43;;;;;;;18.05;10.65;;;;;;;11.73;100.00;101863.09;5091732;28;20357;-45
2023/06/07 05:06:08;;;;;;;16.45;10.30;;;;;;;11.78;100.00;101862.47;5092797;28;20471;-48
2023/06/07 05:08:33;;;;;;;21.92;10.43;;;;;;;11.83;100.00;101860.94;5096150;28;20020;-49
2023/06/07 05:10:59;;;;;;;17.25;10.20;;;;;;;11.86;100.00;101866.25;5095620;28;20527;-45
2023/06/07 05:13:24;;;;;;;21.13;10.13;;;;;;;11.88;100.00;101862.81;5095929;28;20038;-48
2023/06/07 05:15:50;;;;;;;16.90;9.80;;;;;;;11.92;100.00;101864.75;5096317;28;20020;-47
2023/06/07 05:18:19;;;;;;;17.42;10.13;;;;;;;11.97;100.00;101873.59;5095472;28;20030;-47
2023/06/07 05:20:46;;;;;;;16.92;10.40;;;;;;;12.06;100.00;101868.78;5095892;28;20572;-49
2023/06/07 05:23:16;;;;;;;20.70;9.93;;;;;;;12.11;100.00;101881.88;5096226;28;20387;-47
2023/06/07 05:25:43;;;;;;;17.92;10.43;;;;;;;12.13;100.00;101878.53;5095423;28;20130;-49
2023/06/07 05:28:09;;;;;;;19.17;10.48;;;;;;;12.25;100.00;101879.84;5096009;28;20095;-50
2023/06/07 05:30:34;;;;;;;19.20;10.25;;;;;;;12.31;100.00;101877.50;5095647;28;20415;-49
2023/06/07 05:32:59;;;;;;;17.63;9.85;;;;;;;12.44;100.00;101876.28;5095417;28;20031;-50
2023/06/07 05:35:24;;;;;;;18.38;10.30;;;;;;;12.51;100.00;101875.66;5095784;28;20020;-50
2023/06/07 05:37:50;;;;;;;18.85;9.82;;;;;;;12.52;100.00;101880.94;5095267;28;20479;-48
2023/06/07 05:40:18;;;;;;;14.77;9.23;;;;;;;12.51;100.00;101884.31;5095601;28;20186;-44
2023/06/07 05:42:49;;;;;;;15.88;9.50;;;;;;;12.45;99.88;101886.66;5095821;28;20391;-49
2023/06/07 05:45:14;;;;;;;18.55;9.57;;;;;;;12.41;99.59;101877.03;5095212;28;20020;-48
2023/06/07 05:47:41;;;;;;;18.77;10.18;;;;;;;12.40;99.59;101883.03;5095617;28;20039;-49
2023/06/07 05:50:06;;;;;;;19.25;10.05;;;;;;;12.46;100.00;101878.09;5095802;28;20024;-45
2023/06/07 05:52:32;;;;;;;18.25;10.00;;;;;;;12.51;100.00;101880.84;5094557;28;20024;-45
2023/06/07 05:54:58;;;;;;;18.55;10.23;;;;;;;12.56;100.00;101881.03;5095626;28;20047;-49
2023/06/07 05:57:24;;;;;;;18.13;9.48;;;;;;;12.57;99.59;101882.81;5095105;28;20468;-50
2023/06/07 05:59:50;;;;;;;17.67;10.20;;;;;;;12.61;99.71;101890.72;5094588;28;20024;-49
2023/06/07 06:02:16;;;;;;;17.27;9.20;;;;;;;12.66;99.68;101888.31;5095350;28;20031;-44
2023/06/07 06:04:42;;;;;;;17.73;9.45;;;;;;;12.70;99.31;101895.34;5095580;28;20027;-47
2023/06/07 06:07:08;;;;;;;18.67;9.38;;;;;;;12.73;99.10;101897.19;5094556;28;20428;-49
2023/06/07 06:09:34;;;;;;;16.92;9.38;;;;;;;12.80;99.16;101907.81;5094886;28;20020;-48
2023/06/07 06:11:59;;;;;;;14.07;8.70;;;;;;;12.85;98.92;101901.09;5095209;28;20031;-49
2023/06/07 06:14:25;;;;;;;17.48;9.55;;;;;;;12.93;98.10;101892.75;5094254;28;20476;-47
2023/06/07 06:16:51;;;;;;;18.33;9.70;;;;;;;12.95;97.22;101901.44;5095143;28;20052;-50
2023/06/07 06:19:16;;;;;;;17.38;9.40;;;;;;;13.04;97.81;101906.97;5094429;28;20036;-47
2023/06/07 06:21:42;;;;;;;25.23;9.88;;;;;;;13.11;96.37;101902.91;5094197;28;20102;-49
2023/06/07 06:24:07;;;;;;;18.45;9.05;;;;;;;13.17;95.32;101904.00;5095124;28;20078;-49
2023/06/07 06:26:32;;;;;;;16.10;9.38;;;;;;;13.28;94.33;101900.91;5094735;28;20024;-48
2023/06/07 06:28:58;;;;;;;13.35;8.27;;;;;;;13.48;94.23;101904.25;5094317;28;20026;-49
2023/06/07 06:31:24;;;;;;;18.40;9.30;;;;;;;13.61;92.97;101900.38;5094481;28;20085;-48
2023/06/07 06:33:50;;;;;;;15.98;8.82;;;;;;;13.79;92.44;101907.88;5094940;28;20032;-49
2023/06/07 06:36:15;;;;;;;16.50;8.77;;;;;;;13.93;92.38;101903.13;5093739;28;20423;-44
2023/06/07 06:38:41;;;;;;;17.85;9.73;;;;;;;14.00;91.41;101908.56;5094851;28;20095;-48
2023/06/07 06:41:08;;;;;;;15.90;8.60;;;;;;;14.02;91.20;101908.63;5094030;28;20135;-48
2023/06/07 06:43:35;;;;;;;18.73;8.85;;;;;;;13.99;90.51;101912.00;5094494;28;20032;-49
2023/06/07 06:46:00;;;;;;;18.17;8.52;;;;;;;14.01;89.63;101922.41;5094705;28;20028;-49
2023/06/07 06:48:25;;;;;;;16.38;8.93;;;;;;;14.06;90.88;101920.84;5093333;28;20060;-48
2023/06/07 06:50:51;;;;;;;16.83;9.60;;;;;;;14.08;90.81;101918.31;5094448;28;20027;-48
2023/06/07 06:53:16;;;;;;;17.02;8.43;;;;;;;14.14;90.84;101924.56;5094220;28;20544;-47
2023/06/07 06:55:41;;;;;;;18.38;8.82;;;;;;;14.13;89.40;101922.78;5093666;28;20028;-48
2023/06/07 06:58:06;;;;;;;17.02;8.43;;;;;;;14.25;90.45;101918.84;5094503;28;20024;-50
2023/06/07 07:00:35;;;;;;;14.23;8.68;;;;;;;14.25;89.14;101921.44;5094104;28;20032;-46
2023/06/07 07:03:01;;;;;;;20.00;8.68;;;;;;;14.28;88.86;101922.41;5093380;28;20468;-46
2023/06/07 07:05:26;;;;;;;20.58;8.50;;;;;;;14.38;89.55;101925.28;5093941;28;20039;-49
2023/06/07 07:07:51;;;;;;;18.02;8.57;;;;;;;14.48;88.36;101936.00;5094135;28;20023;-48
2023/06/07 07:10:18;;;;;;;17.60;8.90;;;;;;;14.62;88.38;101939.00;5092911;28;20016;-44
2023/06/07 07:12:43;;;;;;;18.88;8.88;;;;;;;14.71;86.33;101943.63;5094333;28;20028;-49
2023/06/07 07:15:09;;;;;;;18.88;8.40;;;;;;;14.88;86.29;101936.34;5094138;28;20422;-46
2023/06/07 07:17:39;;;;;;;16.08;9.20;;;;;;;15.08;84.13;101934.34;5093070;28;20036;-49
2023/06/07 07:20:05;;;;;;;18.15;7.68;;;;;;;15.20;83.51;101938.13;5093752;28;20418;-48
2023/06/07 07:22:31;;;;;;;14.65;7.68;;;;;;;15.40;83.39;101934.38;5093773;28;20035;-49
2023/06/07 07:24:58;;;;;;;17.60;8.45;;;;;;;15.55;82.82;101935.59;5093079;28;20068;-47
2023/06/07 07:27:23;;;;;;;14.57;8.18;;;;;;;15.59;80.51;101943.50;5093331;28;20460;-51
2023/06/07 07:29:48;;;;;;;18.58;8.57;;;;;;;15.89;80.60;101937.38;5093071;28;20060;-48
2023/06/07 07:32:13;;;;;;;19.50;8.60;;;;;;;16.08;81.87;101940.44;5093235;28;20024;-48
2023/06/07 07:34:39;;;;;;;15.55;8.38;;;;;;;16.15;79.77;101944.06;5093326;28;20552;-49
2023/06/07 07:37:06;;;;;;;18.95;8.95;;;;;;;16.07;79.43;101947.34;5093708;28;20020;-50
2023/06/07 07:39:31;;;;;;;20.58;8.15;;;;;;;15.96;78.39;101952.28;5092302;28;20095;-48
2023/06/07 07:41:57;;;;;;;18.15;8.10;;;;;;;15.96;79.25;101939.28;5093741;28;20099;-49
2023/06/07 07:44:22;;;;;;;19.98;8.63;;;;;;;15.97;79.97;101940.16;5093154;28;20050;-47
2023/06/07 07:46:47;;;;;;;17.73;8.15;;;;;;;15.94;78.29;101945.28;5092779;28;20371;-49
2023/06/07 07:49:12;;;;;;;20.80;8.35;;;;;;;15.99;78.32;101933.28;5093518;28;20468;-45
2023/06/07 07:51:38;;;;;;;16.33;9.05;;;;;;;16.15;78.13;101941.47;5092415;28;20513;-49
2023/06/07 07:54:04;;;;;;;15.68;7.60;;;;;;;16.23;77.09;101945.13;5093282;28;20467;-49
2023/06/07 07:56:29;;;;;;;15.75;7.68;;;;;;;16.25;76.07;101943.44;5093168;28;20016;-50
2023/06/07 07:58:55;;;;;;;18.52;8.07;;;;;;;16.37;75.09;101951.53;5092695;28;20065;-48
2023/06/07 08:01:21;;;;;;;14.90;7.65;;;;;;;16.44;75.32;101949.97;5092905;28;20023;-48
2023/06/07 08:03:47;;;;;;;18.33;7.53;;;;;;;16.46;74.95;101954.34;5093322;28;20028;-49
2023/06/07 08:06:12;;;;;;;16.23;7.65;;;;;;;16.54;74.89;101949.31;5092488;28;20360;-50
2023/06/07 08:08:37;;;;;;;19.00;8.07;;;;;;;16.57;74.64;101948.50;5092842;28;20020;-46
2023/06/07 08:11:03;;;;;;;16.48;8.23;;;;;;;16.60;74.30;101948.56;5093041;28;20388;-45
2023/06/07 08:13:28;;;;;;;15.70;7.85;;;;;;;16.79;75.19;101944.66;5092102;28;20039;-49
2023/06/07 08:15:54;;;;;;;17.02;8.02;;;;;;;17.16;75.18;101947.16;5093107;28;20028;-49
2023/06/07 08:18:19;;;;;;;14.50;7.47;;;;;;;17.44;73.34;101935.53;5092922;28;20481;-49
2023/06/07 08:20:44;;;;;;;18.00;7.15;;;;;;;17.58;69.97;101933.19;5092048;28;20055;-47
2023/06/07 08:23:10;;;;;;;15.57;7.30;;;;;;;17.74;70.67;101939.53;5093049;28;20039;-51
2023/06/07 08:25:35;;;;;;;17.08;7.57;;;;;;;17.95;71.65;101944.31;5092745;28;20414;-51
2023/06/07 08:28:01;;;;;;;14.43;7.22;;;;;;;17.79;68.57;101958.75;5092063;28;20024;-45
2023/06/07 08:30:26;;;;;;;17.30;7.72;;;;;;;17.73;68.49;101949.13;5092695;28;20468;-50
2023/06/07 08:32:51;;;;;;;15.60;7.70;;;;;;;17.85;69.78;101944.97;5093076;28;20082;-50
2023/06/07 08:35:17;;;;;;;13.20;7.18;;;;;;;17.80;68.63;101949.22;5091852;28;20413;-49
2023/06/07 08:37:42;;;;;;;17.67;7.72;;;;;;;17.96;70.14;101943.47;5092796;28;20024;-50
2023/06/07 08:40:09;;;;;;;16.45;7.43;;;;;;;18.04;69.75;101948.81;5092887;28;20028;-49
2023/06/07 08:42:37;;;;;;;14.23;7.20;;;;;;;18.23;70.11;101949.94;5096216;28;20028;-49
2023/06/07 08:45:03;;;;;;;17.50;7.65;;;;;;;18.15;67.96;101934.19;5096833;28;20459;-50
2023/06/07 08:47:29;;;;;;;17.25;7.93;;;;;;;18.19;68.11;101940.31;5096507;28;20020;-50
2023/06/07 08:49:57;;;;;;;16.17;7.43;;;;;;;18.25;67.29;101943.03;5096164;28;20058;-45
2023/06/07 08:52:25;;;;;;;15.57;7.65;;;;;;;18.12;66.13;101935.88;5096218;28;20368;-47
2023/06/07 08:54:54;;;;;;;14.02;7.22;;;;;;;18.17;66.09;101942.06;5096129;28;20039;-48
2023/06/07 08:57:20;;;;;;;13.75;7.35;;;;;;;18.56;67.66;101935.66;5096503;28;20030;-49
2023/06/07 08:59:47;;;;;;;15.77;7.80;;;;;;;18.54;65.18;101945.19;5096761;28;20027;-49
2023/06/07 09:02:13;;;;;;;16.50;7.88;;;;;;;18.71;65.95;101941.09;5095861;28;20028;-48
2023/06/07 09:04:42;;;;;;;22.15;7.88;;;;;;;18.81;66.04;101947.31;5096239;28;20032;-49
2023/06/07 09:07:08;;;;;;;14.80;7.03;;;;;;;18.94;65.91;101944.88;5096696;28;20027;-49
2023/06/07 09:09:39;;;;;;;14.15;7.03;;;;;;;19.14;64.75;101948.59;5095535;28;20056;-48
2023/06/07 09:12:06;;;;;;;16.13;6.72;;;;;;;19.20;63.94;101939.97;5096557;28;20020;-50
2023/06/07 09:14:32;;;;;;;14.13;7.22;;;;;;;19.72;64.80;101942.25;5096067;28;20020;-49
2023/06/07 09:16:59;;;;;;;13.88;7.75;;;;;;;19.68;60.49;101949.19;5095438;28;20619;-48
2023/06/07 09:19:36;;;;;;;17.02;7.10;;;;;;;19.71;60.32;101948.31;5095834;28;20380;-49
2023/06/07 09:22:06;;;;;;;13.05;7.10;;;;;;;19.78;61.43;101941.41;5096485;28;20039;-50
2023/06/07 09:24:32;;;;;;;18.02;8.07;;;;;;;19.93;61.25;101936.34;5095384;28;20115;-48
2023/06/07 09:27:02;;;;;;;15.05;7.30;;;;;;;20.06;61.16;101943.44;5096015;28;20495;-50
2023/06/07 09:29:29;;;;;;;16.70;7.82;;;;;;;20.63;58.20;101947.28;5095839;28;20052;-49
2023/06/07 09:32:16;;;;;;;15.00;8.10;;;;;;;20.81;57.74;101951.75;5095150;28;20020;-47
2023/06/07 09:34:41;;;;;;;17.02;8.18;;;;;;;21.06;55.63;101944.91;5095887;28;20456;-46
2023/06/07 09:37:06;;;;;;;13.85;7.43;;;;;;;21.36;53.91;101951.09;5095159;28;20059;-49
2023/06/07 09:39:32;;;;;;;16.70;7.57;;;;;;;21.67;54.31;101952.03;5095599;28;20031;-46
2023/06/07 09:41:58;;;;;;;13.68;6.57;;;;;;;21.72;53.85;101946.81;5095851;28;20020;-48
2023/06/07 09:44:25;;;;;;;17.60;7.75;;;;;;;21.61;52.01;101944.16;5094600;28;20020;-47
2023/06/07 09:46:51;;;;;;;12.83;7.03;;;;;;;21.53;53.32;101941.50;5095628;28;20498;-50
2023/06/07 09:49:27;;;;;;;13.75;6.90;;;;;;;21.43;54.15;101942.34;5095368;28;20556;-49
2023/06/07 09:51:56;;;;;;;17.50;6.93;;;;;;;21.16;52.83;101938.81;5094640;28;20024;-50
2023/06/07 09:54:41;;;;;;;13.88;6.70;;;;;;;21.03;55.45;101937.00;5094969;28;20460;-49
2023/06/07 09:57:08;;;;;;;13.68;6.13;;;;;;;20.76;55.40;101940.38;5095738;28;20048;-49
2023/06/07 09:59:37;;;;;;;15.65;6.35;;;;;;;20.64;56.77;101946.41;5094316;28;20067;-47
2023/06/07 10:02:22;;;;;;;16.00;7.53;;;;;;;20.42;55.59;101955.91;5095370;28;20470;-49
2023/06/07 10:04:48;;;;;;;16.55;7.25;;;;;;;20.38;56.09;101949.75;5095382;28;20142;-49
2023/06/07 10:07:15;;;;;;;12.77;7.45;;;;;;;20.25;56.36;101943.56;5094538;28;20042;-48
2023/06/07 10:09:41;;;;;;;14.57;7.18;;;;;;;20.29;57.30;101932.25;5095535;28;20058;-46
2023/06/07 10:12:10;;;;;;;16.33;7.57;;;;;;;20.30;57.47;101931.38;5094698;28;20063;-48
2023/06/07 10:14:37;;;;;;;18.58;7.40;;;;;;;20.39;58.20;101928.81;5095083;28;20028;-49
2023/06/07 10:17:07;;;;;;;18.73;7.30;;;;;;;20.58;56.77;101928.94;5095289;28;20055;-48
2023/06/07 10:19:52;;;;;;;18.02;7.18;;;;;;;20.81;58.30;101936.03;5093780;28;20024;-49
2023/06/07 10:22:24;;;;;;;15.40;7.68;;;;;;;20.98;54.51;101934.38;5094965;28;20067;-48
2023/06/07 10:25:04;;;;;;;15.60;7.03;;;;;;;21.11;55.06;101934.41;5094929;28;20383;-48
2023/06/07 10:27:38;;;;;;;16.17;7.13;;;;;;;21.12;54.68;101934.44;5094111;28;20027;-49
2023/06/07 10:30:12;;;;;;;14.38;7.82;;;;;;;20.96;55.01;101932.63;5094780;28;20028;-49
2023/06/07 10:32:38;;;;;;;17.83;7.72;;;;;;;20.78;56.33;101933.44;5094778;28;20097;-49
2023/06/07 10:35:07;;;;;;;13.57;6.82;;;;;;;20.77;56.51;101935.16;5094321;28;20038;-48
2023/06/07 10:37:35;;;;;;;15.20;7.38;;;;;;;20.82;55.93;101943.91;5094588;28;20052;-50
2023/06/07 10:40:10;;;;;;;15.40;8.10;;;;;;;20.80;56.04;101937.81;5094651;28;20047;-47
2023/06/07 10:42:40;;;;;;;21.00;7.65;;;;;;;20.90;56.13;101943.94;5093690;28;20031;-47
2023/06/07 10:45:06;;;;;;;13.27;6.75;;;;;;;21.21;54.81;101933.56;5094825;28;20031;-50
2023/06/07 10:47:32;;;;;;;15.18;7.60;;;;;;;21.09;54.84;101930.91;5093441;28;20023;-45
2023/06/07 10:49:57;;;;;;;13.80;7.53;;;;;;;21.57;53.01;101925.81;5094676;28;20036;-48
2023/06/07 10:52:26;;;;;;;12.35;7.03;;;;;;;21.68;51.66;101927.56;5094272;28;20413;-49
2023/06/07 10:54:52;;;;;;;13.73;7.15;;;;;;;21.75;51.62;101919.69;5093702;28;20032;-50
2023/06/07 10:57:37;;;;;;;12.10;6.85;;;;;;;21.88;53.25;101924.06;5093999;28;20053;-48
2023/06/07 11:00:33;;;;;;;16.13;8.07;;;;;;;21.79;53.35;101921.44;5094385;28;20032;-46
2023/06/07 11:03:05;;;;;;;11.82;7.53;;;;;;;21.47;52.66;101920.53;5093567;28;20032;-50
2023/06/07 11:05:51;;;;;;;17.60;7.28;;;;;;;21.43;54.17;101924.00;5093873;28;20032;-49
2023/06/07 11:08:29;;;;;;;14.57;7.45;;;;;;;21.27;53.99;101923.09;5093844;28;20039;-45
2023/06/07 11:11:00;;;;;;;11.77;7.38;;;;;;;21.34;54.51;101914.38;5094131;28;20373;-48
2023/06/07 11:13:26;;;;;;;14.13;7.82;;;;;;;21.36;52.33;101917.00;5093945;28;20024;-49